Terminal Aerodrome Forecast
Issued by NWS

Home | Current Version | Previous Version | Text Only | Print | Product List | Glossary On
Versions: 1 2 3 4 5 6 7 8 9 10 11 12 13 14
028
FTPA31 PHFO 292320
TAFHOG
TAF
PHOG 292320Z 3000/3024 05018G25KT P6SM FEW030 SCT050
     FM300600 05010KT P6SM FEW030 SCT050
     FM302000 05016G24KT P6SM FEW030 SCT050=

USA.gov is the U.S. government's official web portal to all federal, state and local government web resources and services.